Time;durP1;ratioP1;P1;durP2;ratioP2;P2;SDS_P1;SDS_P2;PMS_P1;PMS_P2;Temp;Humidity;BMP_temperature;BMP_pressure;BME280_temperature;BME280_humidity;BME280_pressure;Samples;Min_cycle;Max_cycle;Signal;HPM_P1;HPM_P2
2022/11/21 05:46:01;;;;;;;;;;;21.50;33.50;;;;;;6114777;23;19928;-66
2022/11/21 05:48:28;;;;;;;;;;;21.50;34.10;;;;;;6123731;23;19921;-66
2022/11/21 05:50:54;;;;;;;;;;;21.50;31.90;;;;;;6123627;23;19971;-67
2022/11/21 05:53:21;;;;;;;;;;;21.40;31.80;;;;;;6123579;23;20388;-67
2022/11/21 05:55:47;;;;;;;;;;;21.40;32.90;;;;;;6123716;23;19967;-66
2022/11/21 05:58:14;;;;;;;;;;;21.30;33.40;;;;;;6123176;23;19905;-66
2022/11/21 06:00:41;;;;;;;;;;;21.50;33.30;;;;;;6123947;23;19964;-66
2022/11/21 06:03:26;;;;;;;;;;;21.50;33.10;;;;;;6097922;23;19911;-66
2022/11/21 06:06:09;;;;;;;;;;;21.50;32.70;;;;;;6101573;23;19905;-66
2022/11/21 06:08:37;;;;;;;;;;;21.40;32.30;;;;;;6122822;23;19923;-66
2022/11/21 06:11:03;;;;;;;;;;;21.50;32.20;;;;;;6097867;23;19908;-65
2022/11/21 06:13:32;;;;;;;;;;;21.40;32.70;;;;;;6097945;23;19905;-66
2022/11/21 06:16:05;;;;;;;;;;;21.40;32.60;;;;;;6098675;23;20304;-66
2022/11/21 06:18:32;;;;;;;;;;;21.40;32.60;;;;;;6123855;23;20332;-67
2022/11/21 06:21:09;;;;;;;;;;;21.50;32.60;;;;;;6098095;23;19905;-66
2022/11/21 06:23:35;;;;;;;;;;;21.50;32.50;;;;;;6123951;23;19929;-67
2022/11/21 06:26:03;;;;;;;;;;;21.50;32.00;;;;;;6125290;23;19937;-66
2022/11/21 06:28:30;;;;;;;;;;;21.50;31.30;;;;;;6122836;23;20292;-66
2022/11/21 06:30:56;;;;;;;;;;;21.40;31.40;;;;;;6073150;23;19905;-67
2022/11/21 06:33:23;;;;;;;;;;;21.40;31.00;;;;;;6125176;23;19905;-66
2022/11/21 06:35:50;;;;;;;;;;;21.40;31.00;;;;;;6124430;23;19909;-66
2022/11/21 06:38:18;;;;;;;;;;;21.30;31.10;;;;;;6097524;23;19912;-65
2022/11/21 06:40:45;;;;;;;;;;;21.30;31.90;;;;;;6097273;23;19909;-66
2022/11/21 06:43:12;;;;;;;;;;;21.30;31.50;;;;;;6124525;23;19905;-64
2022/11/21 07:01:21;;;;;;;;;;;21.10;32.10;;;;;;6105866;23;19983;-66
2022/11/21 07:03:48;;;;;;;;;;;21.00;31.50;;;;;;6098851;23;19959;-66
2022/11/21 07:06:14;;;;;;;;;;;20.80;31.60;;;;;;6099301;23;19987;-67
2022/11/21 07:08:41;;;;;;;;;;;20.80;31.90;;;;;;6124844;23;20429;-67
2022/11/21 07:11:11;;;;;;;;;;;20.80;32.30;;;;;;6123933;23;20394;-65
2022/11/21 07:13:38;;;;;;;;;;;20.70;32.40;;;;;;6098349;23;20289;-65
2022/11/21 07:16:05;;;;;;;;;;;20.70;32.90;;;;;;6097529;23;19916;-65
2022/11/21 07:18:32;;;;;;;;;;;20.70;32.90;;;;;;6124257;23;20005;-65
2022/11/21 07:20:59;;;;;;;;;;;20.70;32.70;;;;;;6126637;23;20279;-65
2022/11/21 07:23:25;;;;;;;;;;;20.50;32.90;;;;;;6124257;23;19959;-65
2022/11/21 07:25:52;;;;;;;;;;;20.60;33.00;;;;;;6125249;23;19905;-65
2022/11/21 07:28:19;;;;;;;;;;;20.60;33.70;;;;;;6099486;23;20348;-67
2022/11/21 07:30:45;;;;;;;;;;;20.60;33.20;;;;;;6125576;23;19913;-65
2022/11/21 07:33:12;;;;;;;;;;;20.50;33.30;;;;;;6099951;23;19913;-65
2022/11/21 07:35:39;;;;;;;;;;;20.50;33.70;;;;;;6125160;23;19905;-65
2022/11/21 07:38:05;;;;;;;;;;;20.50;34.00;;;;;;6126204;23;19905;-66
2022/11/21 07:40:33;;;;;;;;;;;20.50;34.60;;;;;;6125414;23;19912;-66
2022/11/21 07:43:01;;;;;;;;;;;20.40;34.40;;;;;;6126028;23;19912;-65
2022/11/21 07:45:27;;;;;;;;;;;20.40;34.70;;;;;;6100436;23;20240;-67
2022/11/21 07:47:58;;;;;;;;;;;20.30;33.80;;;;;;6124463;23;19928;-67
2022/11/21 07:50:24;;;;;;;;;;;20.20;33.60;;;;;;6099966;23;19984;-65
2022/11/21 07:52:51;;;;;;;;;;;20.20;33.70;;;;;;6118622;23;19909;-65
2022/11/21 07:55:17;;;;;;;;;;;20.20;33.70;;;;;;6119790;23;19909;-65
2022/11/21 07:57:44;;;;;;;;;;;20.20;34.10;;;;;;6122726;23;19905;-67
2022/11/21 08:00:11;;;;;;;;;;;20.20;33.50;;;;;;6122513;23;19909;-67
2022/11/21 08:02:37;;;;;;;;;;;20.20;33.80;;;;;;6121390;23;20229;-67
2022/11/21 08:05:04;;;;;;;;;;;20.20;33.70;;;;;;6120982;23;19909;-67
2022/11/21 08:07:31;;;;;;;;;;;20.10;33.20;;;;;;6122970;23;19905;-67
2022/11/21 08:09:57;;;;;;;;;;;20.00;32.80;;;;;;6122588;23;19921;-67
2022/11/21 08:12:25;;;;;;;;;;;19.90;32.50;;;;;;6122677;23;19991;-66
2022/11/21 08:14:51;;;;;;;;;;;19.80;32.60;;;;;;6122760;23;20372;-66
2022/11/21 08:17:18;;;;;;;;;;;19.80;32.60;;;;;;6122580;23;19944;-65
2022/11/21 08:19:44;;;;;;;;;;;19.80;32.10;;;;;;6122945;23;19960;-66
2022/11/21 08:22:11;;;;;;;;;;;19.70;32.30;;;;;;6122493;23;19912;-65
2022/11/21 08:24:38;;;;;;;;;;;19.70;32.60;;;;;;6096409;23;19909;-65
2022/11/21 08:27:04;;;;;;;;;;;19.70;32.80;;;;;;6122430;23;19920;-66
2022/11/21 08:29:31;;;;;;;;;;;19.70;32.50;;;;;;6095768;23;19917;-66
2022/11/21 08:31:57;;;;;;;;;;;19.60;32.40;;;;;;6121401;23;19997;-66
2022/11/21 08:34:24;;;;;;;;;;;19.60;33.00;;;;;;6121920;23;20376;-66
2022/11/21 08:36:52;;;;;;;;;;;19.60;33.00;;;;;;6095341;23;19926;-67
2022/11/21 08:39:18;;;;;;;;;;;19.60;33.20;;;;;;6121442;23;19913;-66
2022/11/21 08:42:03;;;;;;;;;;;19.50;33.70;;;;;;6095684;23;19905;-65
2022/11/21 08:44:30;;;;;;;;;;;19.50;33.90;;;;;;6098864;23;20768;-66
2022/11/21 08:46:57;;;;;;;;;;;19.40;34.00;;;;;;6095837;23;19980;-66
2022/11/21 08:49:23;;;;;;;;;;;19.40;34.10;;;;;;6121500;23;19967;-66
2022/11/21 08:51:50;;;;;;;;;;;19.30;34.30;;;;;;6120641;23;20288;-66
2022/11/21 08:54:17;;;;;;;;;;;19.20;34.70;;;;;;6092542;23;20325;-66
2022/11/21 08:56:44;;;;;;;;;;;19.20;35.10;;;;;;6121619;23;19946;-66
2022/11/21 08:59:10;;;;;;;;;;;19.10;35.10;;;;;;6121864;23;19909;-67
2022/11/21 09:01:37;;;;;;;;;;;19.10;35.40;;;;;;6095240;23;20048;-65
2022/11/21 09:04:04;;;;;;;;;;;18.90;35.80;;;;;;6094987;23;19916;-66
2022/11/21 09:06:31;;;;;;;;;;;18.90;36.00;;;;;;6120976;23;19939;-66
2022/11/21 09:08:57;;;;;;;;;;;18.90;35.70;;;;;;6094652;23;19921;-67
2022/11/21 09:11:24;;;;;;;;;;;18.80;35.80;;;;;;6121777;23;20210;-67
2022/11/21 09:19:20;;;;;;;;;;;18.70;35.00;;;;;;6121640;23;19972;-69
2022/11/21 09:21:50;;;;;;;;;;;18.80;35.20;;;;;;6120822;23;19913;-67
2022/11/21 09:24:17;;;;;;;;;;;18.80;35.10;;;;;;6122213;23;20321;-67
2022/11/21 09:26:43;;;;;;;;;;;18.70;35.00;;;;;;6095106;23;19920;-67
2022/11/21 09:29:10;;;;;;;;;;;18.70;35.20;;;;;;6120619;23;19924;-70
2022/11/21 09:31:37;;;;;;;;;;;18.70;35.10;;;;;;6122626;23;19913;-69
2022/11/21 09:34:04;;;;;;;;;;;18.60;35.20;;;;;;6121437;23;20331;-70
2022/11/21 09:36:30;;;;;;;;;;;18.60;35.20;;;;;;6095712;23;20001;-69
2022/11/21 09:38:57;;;;;;;;;;;18.50;35.70;;;;;;6121066;23;20429;-69
2022/11/21 09:44:19;;;;;;;;;;;18.50;35.70;;;;;;6099086;23;19916;-69
2022/11/21 09:46:46;;;;;;;;;;;18.40;35.60;;;;;;6095495;23;19916;-71
2022/11/21 09:49:13;;;;;;;;;;;18.40;35.90;;;;;;6095601;23;19950;-70
2022/11/21 09:51:40;;;;;;;;;;;18.30;36.10;;;;;;6095855;23;19908;-69
2022/11/21 09:54:11;;;;;;;;;;;18.30;36.00;;;;;;6093643;23;20235;-67
2022/11/21 09:56:38;;;;;;;;;;;18.20;35.60;;;;;;6095545;23;19996;-69
2022/11/21 09:59:05;;;;;;;;;;;18.30;36.00;;;;;;6095429;23;20400;-70
2022/11/21 10:01:31;;;;;;;;;;;18.30;36.60;;;;;;6118760;23;20371;-68
2022/11/21 10:03:58;;;;;;;;;;;18.30;36.90;;;;;;6095235;23;20317;-67
2022/11/21 10:06:26;;;;;;;;;;;18.20;36.60;;;;;;6098522;23;19984;-67
2022/11/21 10:09:01;;;;;;;;;;;18.20;36.90;;;;;;6098655;23;19913;-68
2022/11/21 10:11:31;;;;;;;;;;;18.10;36.90;;;;;;6097982;23;19909;-68
2022/11/21 10:14:13;;;;;;;;;;;18.10;37.30;;;;;;6124068;23;20392;-68
2022/11/21 10:16:39;;;;;;;;;;;18.10;37.80;;;;;;6074047;23;20284;-67
2022/11/21 10:19:06;;;;;;;;;;;18.00;37.00;;;;;;6124579;23;19952;-68
2022/11/21 10:21:39;;;;;;;;;;;18.00;37.70;;;;;;6122955;23;19932;-67
2022/11/21 10:24:07;;;;;;;;;;;18.00;37.80;;;;;;6123817;23;20240;-67
2022/11/21 10:26:33;;;;;;;;;;;17.90;38.10;;;;;;6122780;23;20309;-67
2022/11/21 10:29:11;;;;;;;;;;;18.00;37.80;;;;;;6124169;23;19920;-67
2022/11/21 10:31:39;;;;;;;;;;;18.00;38.20;;;;;;6098045;23;19912;-68
2022/11/21 10:34:15;;;;;;;;;;;17.90;38.00;;;;;;6097123;23;20214;-67
2022/11/21 10:36:43;;;;;;;;;;;17.80;38.00;;;;;;6095288;23;19913;-69
2022/11/21 10:39:32;;;;;;;;;;;17.80;38.40;;;;;;6093476;23;19905;-67
2022/11/21 10:42:03;;;;;;;;;;;17.80;39.30;;;;;;6106084;23;20247;-68
2022/11/21 10:47:26;;;;;;;;;;;17.70;39.00;;;;;;6097787;23;20362;-68
2022/11/21 10:50:05;;;;;;;;;;;17.70;38.90;;;;;;6096332;23;20378;-69
2022/11/21 10:52:33;;;;;;;;;;;17.70;39.60;;;;;;6121142;23;19908;-70
2022/11/21 10:55:09;;;;;;;;;;;17.70;39.90;;;;;;6095329;23;19919;-68
2022/11/21 10:57:45;;;;;;;;;;;17.70;40.10;;;;;;6122787;23;19913;-69
2022/11/21 11:00:12;;;;;;;;;;;17.60;39.50;;;;;;6122048;23;19909;-68
2022/11/21 11:02:42;;;;;;;;;;;17.50;39.60;;;;;;6122767;23;19905;-68
2022/11/21 11:05:21;;;;;;;;;;;17.50;39.30;;;;;;6096409;23;19916;-68
2022/11/21 11:08:07;;;;;;;;;;;17.50;39.60;;;;;;6094719;23;19933;-69
2022/11/21 11:10:34;;;;;;;;;;;17.60;39.90;;;;;;6122132;23;19917;-69
2022/11/21 11:16:01;;;;;;;;;;;17.50;39.80;;;;;;6099693;23;19915;-68
2022/11/21 11:18:28;;;;;;;;;;;17.60;39.70;;;;;;6123372;23;19952;-69
2022/11/21 11:20:54;;;;;;;;;;;17.60;39.90;;;;;;6097687;23;19916;-69
2022/11/21 11:23:29;;;;;;;;;;;17.70;40.00;;;;;;6095896;23;20324;-69
2022/11/21 11:25:57;;;;;;;;;;;17.50;39.90;;;;;;6120726;23;19905;-68
2022/11/21 11:28:32;;;;;;;;;;;17.50;39.90;;;;;;6095912;23;19932;-69
2022/11/21 11:31:00;;;;;;;;;;;17.50;39.90;;;;;;6070723;23;20240;-69
2022/11/21 11:33:30;;;;;;;;;;;17.40;40.10;;;;;;6096693;23;20356;-69
2022/11/21 11:36:13;;;;;;;;;;;17.40;40.20;;;;;;6122585;23;19916;-68
2022/11/21 11:38:46;;;;;;;;;;;17.40;40.00;;;;;;6096251;23;19933;-68
2022/11/21 11:41:17;;;;;;;;;;;17.40;40.00;;;;;;6122518;23;19909;-68
2022/11/21 11:49:15;;;;;;;;;;;17.30;39.90;;;;;;6120941;23;20033;-68
2022/11/21 11:51:44;;;;;;;;;;;17.30;40.40;;;;;;6095508;23;19909;-69
2022/11/21 11:54:21;;;;;;;;;;;17.30;40.40;;;;;;6120429;23;19909;-68
2022/11/21 11:56:48;;;;;;;;;;;17.20;40.70;;;;;;6097391;23;19912;-68
2022/11/21 11:59:22;;;;;;;;;;;17.20;41.20;;;;;;6123526;23;19909;-68
2022/11/21 12:01:55;;;;;;;;;;;17.10;41.50;;;;;;6124739;23;20317;-68
2022/11/21 12:04:23;;;;;;;;;;;17.10;41.80;;;;;;6124699;23;19909;-68
2022/11/21 12:07:02;;;;;;;;;;;17.00;42.10;;;;;;6099597;23;19913;-68
2022/11/21 12:09:28;;;;;;;;;;;17.00;42.50;;;;;;6125606;23;19913;-68
2022/11/21 12:12:07;;;;;;;;;;;16.80;42.60;;;;;;6125054;23;19905;-68
2022/11/21 12:17:27;;;;;;;;;;;16.70;43.50;;;;;;6103126;23;19915;-68
2022/11/21 12:19:53;;;;;;;;;;;16.60;44.20;;;;;;6099138;23;19956;-68
2022/11/21 12:22:20;;;;;;;;;;;16.50;44.50;;;;;;6125096;23;19905;-68
2022/11/21 12:24:46;;;;;;;;;;;16.50;44.90;;;;;;6099318;23;19992;-68
2022/11/21 12:27:18;;;;;;;;;;;16.50;44.80;;;;;;6125477;23;20364;-68
2022/11/21 13:14:35;;;;;;;;;;;15.90;46.80;;;;;;6112001;23;19928;-68
2022/11/21 13:17:05;;;;;;;;;;;15.80;46.80;;;;;;6125375;23;20292;-68
2022/11/21 13:19:49;;;;;;;;;;;15.80;47.30;;;;;;6125401;23;19944;-67
2022/11/21 13:22:33;;;;;;;;;;;15.80;47.00;;;;;;6125129;23;19980;-68
2022/11/21 13:25:00;;;;;;;;;;;15.80;47.00;;;;;;6125577;23;19960;-68
2022/11/21 13:27:42;;;;;;;;;;;15.70;47.50;;;;;;6125379;23;19952;-69
2022/11/21 13:30:13;;;;;;;;;;;15.70;47.20;;;;;;6099174;23;20343;-68
2022/11/21 13:32:43;;;;;;;;;;;15.70;47.60;;;;;;6098913;23;19984;-68
2022/11/21 13:35:19;;;;;;;;;;;15.70;47.70;;;;;;6075168;23;20000;-68
2022/11/21 13:37:49;;;;;;;;;;;15.70;48.50;;;;;;6125263;23;19912;-68
2022/11/21 13:40:30;;;;;;;;;;;15.60;48.20;;;;;;6098844;23;20380;-68
2022/11/21 13:43:10;;;;;;;;;;;15.60;48.10;;;;;;6098927;23;19909;-68
2022/11/21 13:45:57;;;;;;;;;;;15.60;48.30;;;;;;6124044;23;20051;-68
2022/11/21 13:48:42;;;;;;;;;;;15.50;48.30;;;;;;6099431;23;19909;-68
2022/11/21 13:51:22;;;;;;;;;;;15.50;48.30;;;;;;6124552;23;19999;-68
2022/11/21 13:53:52;;;;;;;;;;;15.40;48.50;;;;;;6098364;23;19980;-69
2022/11/21 13:56:37;;;;;;;;;;;15.50;48.50;;;;;;6124753;23;19987;-68
2022/11/21 13:59:03;;;;;;;;;;;15.50;49.20;;;;;;6125218;23;20277;-68
2022/11/21 14:01:33;;;;;;;;;;;15.30;49.90;;;;;;6123596;23;20008;-68
2022/11/21 14:04:02;;;;;;;;;;;15.30;50.30;;;;;;6124786;23;19911;-68
2022/11/21 14:06:42;;;;;;;;;;;15.30;50.40;;;;;;6124922;23;19905;-69
2022/11/21 14:09:21;;;;;;;;;;;15.30;50.20;;;;;;6124163;23;20240;-69
2022/11/21 14:11:56;;;;;;;;;;;15.30;50.20;;;;;;6096936;23;19921;-68
2022/11/21 14:14:30;;;;;;;;;;;15.30;50.30;;;;;;6124383;23;20300;-68
2022/11/21 14:17:03;;;;;;;;;;;15.20;50.80;;;;;;6125072;23;19905;-67
2022/11/21 14:19:31;;;;;;;;;;;15.20;50.90;;;;;;6074471;23;19905;-68
2022/11/21 14:21:57;;;;;;;;;;;15.20;50.70;;;;;;6098654;23;19909;-68
2022/11/21 14:24:24;;;;;;;;;;;15.10;50.30;;;;;;6099078;23;19905;-68
2022/11/21 14:26:51;;;;;;;;;;;15.00;50.10;;;;;;6098925;23;19944;-68
2022/11/21 14:29:21;;;;;;;;;;;15.00;50.40;;;;;;6099875;23;20225;-69
2022/11/21 14:31:48;;;;;;;;;;;15.00;50.20;;;;;;6099743;23;19983;-68
2022/11/21 14:34:24;;;;;;;;;;;15.00;50.30;;;;;;6101188;23;19983;-68
2022/11/21 14:36:51;;;;;;;;;;;15.00;50.70;;;;;;6100333;23;19905;-68
2022/11/21 14:39:17;;;;;;;;;;;14.90;50.60;;;;;;6099784;23;19913;-68
2022/11/21 14:42:04;;;;;;;;;;;15.00;50.10;;;;;;6100305;23;19937;-68
2022/11/21 14:44:30;;;;;;;;;;;14.90;49.90;;;;;;6126508;23;19913;-68
2022/11/21 14:47:16;;;;;;;;;;;15.00;49.60;;;;;;6126184;23;19905;-68
2022/11/21 14:49:49;;;;;;;;;;;15.00;49.80;;;;;;6101229;23;19920;-68
2022/11/21 14:52:17;;;;;;;;;;;14.90;49.80;;;;;;6126250;23;19905;-68
2022/11/21 14:54:49;;;;;;;;;;;14.90;50.20;;;;;;6099460;23;19944;-68
2022/11/21 14:57:28;;;;;;;;;;;14.90;50.60;;;;;;6125213;23;19935;-69
2022/11/21 14:59:55;;;;;;;;;;;14.90;50.70;;;;;;6125542;23;19905;-69
2022/11/21 15:02:23;;;;;;;;;;;14.80;50.50;;;;;;6127509;23;19916;-68
2022/11/21 15:04:51;;;;;;;;;;;14.80;50.40;;;;;;6126583;23;19904;-68
2022/11/21 15:07:18;;;;;;;;;;;14.70;50.50;;;;;;6100531;23;19917;-68
2022/11/21 15:09:45;;;;;;;;;;;14.70;50.20;;;;;;6099927;23;19923;-68
2022/11/21 16:20:01;;;;;;;;;;;14.50;48.10;;;;;;6116919;23;19944;-67
2022/11/21 16:22:28;;;;;;;;;;;14.50;48.20;;;;;;6124781;23;19916;-68
2022/11/21 16:24:54;;;;;;;;;;;14.50;48.10;;;;;;6125043;23;20256;-68
2022/11/21 16:27:21;;;;;;;;;;;14.50;47.90;;;;;;6125170;23;19912;-68
2022/11/21 16:29:48;;;;;;;;;;;14.40;48.00;;;;;;6124884;23;19922;-67
2022/11/21 16:32:14;;;;;;;;;;;14.50;48.00;;;;;;6125362;23;20005;-68
2022/11/21 16:34:41;;;;;;;;;;;14.50;48.00;;;;;;6124732;23;19905;-68
2022/11/21 16:37:07;;;;;;;;;;;14.40;47.90;;;;;;6099134;23;19905;-68
2022/11/21 16:39:34;;;;;;;;;;;14.40;48.20;;;;;;6125393;23;19912;-68
2022/11/21 16:42:01;;;;;;;;;;;14.30;48.30;;;;;;6125167;23;19944;-67
2022/11/21 16:44:28;;;;;;;;;;;14.40;49.00;;;;;;6124594;23;20032;-68
2022/11/21 16:46:55;;;;;;;;;;;14.30;49.10;;;;;;6124286;23;20244;-68
2022/11/21 16:49:23;;;;;;;;;;;14.30;49.20;;;;;;6125302;23;19921;-67
2022/11/21 16:51:50;;;;;;;;;;;14.30;49.20;;;;;;6124744;23;19972;-68
2022/11/21 16:54:16;;;;;;;;;;;14.30;48.80;;;;;;6123449;23;19905;-67
2022/11/21 16:56:43;;;;;;;;;;;14.30;49.00;;;;;;6125265;23;19904;-67
2022/11/21 16:59:10;;;;;;;;;;;14.20;49.00;;;;;;6125052;23;19912;-67
2022/11/21 17:01:36;;;;;;;;;;;14.30;49.90;;;;;;6124674;23;19912;-68
2022/11/21 17:04:03;;;;;;;;;;;14.20;50.30;;;;;;6124168;23;20313;-68
2022/11/21 17:06:30;;;;;;;;;;;14.20;50.50;;;;;;6125359;23;20317;-68
2022/11/21 17:08:58;;;;;;;;;;;14.20;50.10;;;;;;6099582;23;19967;-68
2022/11/21 17:11:27;;;;;;;;;;;14.10;50.80;;;;;;6123820;23;19956;-68
2022/11/21 17:13:54;;;;;;;;;;;14.10;50.70;;;;;;6125557;23;20243;-68
2022/11/21 17:16:21;;;;;;;;;;;14.10;50.70;;;;;;6074707;23;19916;-67
2022/11/21 17:18:51;;;;;;;;;;;14.10;50.50;;;;;;6099629;23;19963;-68
2022/11/21 17:21:18;;;;;;;;;;;14.10;50.80;;;;;;6098852;23;19905;-67
2022/11/21 17:23:45;;;;;;;;;;;14.10;50.60;;;;;;6125567;23;20360;-68
2022/11/21 17:26:12;;;;;;;;;;;14.10;50.00;;;;;;6098923;23;20367;-67
2022/11/21 17:28:39;;;;;;;;;;;14.00;50.80;;;;;;6123758;23;20296;-68
2022/11/21 17:31:06;;;;;;;;;;;14.10;50.30;;;;;;6097072;23;19909;-67
2022/11/21 17:33:32;;;;;;;;;;;14.10;49.80;;;;;;6099805;23;19936;-67
2022/11/21 17:36:03;;;;;;;;;;;14.10;50.00;;;;;;6123937;23;19971;-67
2022/11/21 17:38:29;;;;;;;;;;;14.10;49.80;;;;;;6098821;23;19908;-68
2022/11/21 17:41:00;;;;;;;;;;;14.10;49.60;;;;;;6098306;23;19905;-68
2022/11/21 17:43:27;;;;;;;;;;;14.10;49.30;;;;;;6125167;23;19964;-68
2022/11/21 17:45:58;;;;;;;;;;;14.10;49.40;;;;;;6124190;23;19932;-67
2022/11/21 17:48:24;;;;;;;;;;;14.10;48.90;;;;;;6073951;23;20005;-67
2022/11/21 17:51:02;;;;;;;;;;;14.10;49.40;;;;;;6123083;23;19988;-67
2022/11/21 17:53:33;;;;;;;;;;;14.00;49.50;;;;;;6124068;23;20244;-67
2022/11/21 17:56:00;;;;;;;;;;;14.00;49.10;;;;;;6098280;23;19916;-67
2022/11/21 17:58:26;;;;;;;;;;;14.00;49.40;;;;;;6123990;23;19951;-67
2022/11/21 18:00:54;;;;;;;;;;;13.90;49.70;;;;;;6123147;23;19905;-67
2022/11/21 18:03:21;;;;;;;;;;;14.00;49.60;;;;;;6148436;23;19940;-75
2022/11/21 18:05:47;;;;;;;;;;;13.90;49.70;;;;;;6154055;23;19932;-74
2022/11/21 18:08:14;;;;;;;;;;;13.90;49.30;;;;;;6153067;23;19905;-74
2022/11/21 18:10:41;;;;;;;;;;;13.80;49.30;;;;;;6151511;23;19984;-74
2022/11/21 18:13:08;;;;;;;;;;;13.90;49.60;;;;;;6153723;23;19904;-73
2022/11/21 18:15:34;;;;;;;;;;;13.90;49.40;;;;;;6128189;23;20291;-73
2022/11/21 18:18:01;;;;;;;;;;;13.80;49.50;;;;;;6154265;23;19941;-73
2022/11/21 18:20:28;;;;;;;;;;;13.80;49.20;;;;;;6154269;23;20293;-73
2022/11/21 18:22:54;;;;;;;;;;;13.90;49.30;;;;;;6153568;23;19979;-74
2022/11/21 18:25:21;;;;;;;;;;;13.80;49.40;;;;;;6153809;23;19905;-74
2022/11/21 18:27:47;;;;;;;;;;;13.90;49.50;;;;;;6153468;23;19908;-74
2022/11/21 18:30:14;;;;;;;;;;;13.90;49.70;;;;;;6153112;23;19936;-74
2022/11/21 18:32:41;;;;;;;;;;;13.90;49.80;;;;;;6153129;23;20316;-74
2022/11/21 18:35:07;;;;;;;;;;;13.90;50.00;;;;;;6152679;23;20217;-73
2022/11/21 18:37:34;;;;;;;;;;;13.90;50.50;;;;;;6153804;23;20285;-73
2022/11/21 18:40:01;;;;;;;;;;;13.80;50.60;;;;;;6153784;23;19915;-74
2022/11/21 18:42:27;;;;;;;;;;;13.80;49.90;;;;;;6154384;23;19911;-73
2022/11/21 18:44:54;;;;;;;;;;;13.80;50.00;;;;;;6153923;23;20217;-74
2022/11/21 18:47:20;;;;;;;;;;;13.80;49.90;;;;;;6153671;23;19927;-74
2022/11/21 18:49:47;;;;;;;;;;;13.80;49.70;;;;;;6153507;23;19920;-74
2022/11/21 18:52:14;;;;;;;;;;;13.70;49.00;;;;;;6153300;23;19907;-73
2022/11/21 18:54:40;;;;;;;;;;;13.70;48.60;;;;;;6153809;23;19927;-73
2022/11/21 18:57:07;;;;;;;;;;;13.80;48.50;;;;;;6152974;23;19905;-73
2022/11/21 18:59:33;;;;;;;;;;;14.00;47.90;;;;;;6154005;23;19944;-74
2022/11/21 19:02:00;;;;;;;;;;;14.00;47.00;;;;;;6153283;23;19936;-74
2022/11/21 19:04:27;;;;;;;;;;;14.10;46.40;;;;;;6152344;23;20320;-73
2022/11/21 19:06:54;;;;;;;;;;;14.20;46.30;;;;;;6153460;23;20240;-73
2022/11/21 19:09:20;;;;;;;;;;;14.10;46.00;;;;;;6154166;23;20324;-74
2022/11/21 19:11:47;;;;;;;;;;;14.20;45.70;;;;;;6154228;23;19920;-73
2022/11/21 19:14:13;;;;;;;;;;;14.20;46.10;;;;;;6154234;23;19975;-73
2022/11/21 19:16:40;;;;;;;;;;;14.20;45.40;;;;;;6154816;23;20003;-74
2022/11/21 19:19:07;;;;;;;;;;;14.30;45.40;;;;;;6156127;23;20217;-74
2022/11/21 19:21:37;;;;;;;;;;;14.30;45.20;;;;;;6155746;23;19955;-73
2022/11/21 19:24:05;;;;;;;;;;;14.40;45.40;;;;;;6129410;23;20380;-73
2022/11/21 19:26:32;;;;;;;;;;;14.40;46.00;;;;;;6155406;23;19919;-73
2022/11/21 19:28:58;;;;;;;;;;;14.50;45.70;;;;;;6154405;23;20324;-73
2022/11/21 19:31:25;;;;;;;;;;;14.50;45.60;;;;;;6155438;23;19904;-74
2022/11/21 19:33:52;;;;;;;;;;;14.60;46.60;;;;;;6154973;23;20243;-73
2022/11/21 19:36:19;;;;;;;;;;;14.60;46.20;;;;;;6128618;23;20287;-73
2022/11/21 19:38:45;;;;;;;;;;;14.70;46.90;;;;;;6155620;23;19928;-73
2022/11/21 19:41:14;;;;;;;;;;;14.80;48.40;;;;;;6154888;23;20370;-73
2022/11/21 19:43:42;;;;;;;;;;;14.80;46.00;;;;;;6154968;23;19984;-73
2022/11/21 19:46:08;;;;;;;;;;;14.80;46.50;;;;;;6154883;23;20239;-73
2022/11/21 19:48:35;;;;;;;;;;;14.70;46.30;;;;;;6155966;23;19913;-73
2022/11/21 19:51:02;;;;;;;;;;;14.70;46.60;;;;;;6154398;23;19932;-74
2022/11/21 19:53:32;;;;;;;;;;;14.70;45.50;;;;;;6155162;23;19928;-73
2022/11/21 19:55:58;;;;;;;;;;;14.70;45.70;;;;;;6128839;23;19905;-73
2022/11/21 19:58:26;;;;;;;;;;;14.80;46.20;;;;;;6154711;23;19952;-73
2022/11/21 20:00:52;;;;;;;;;;;14.80;46.50;;;;;;6154606;23;19904;-74
2022/11/21 20:03:19;;;;;;;;;;;14.80;46.40;;;;;;6153996;23;19920;-73
2022/11/21 20:05:46;;;;;;;;;;;14.90;46.60;;;;;;6154503;23;19932;-73
2022/11/21 20:08:13;;;;;;;;;;;14.90;45.90;;;;;;6154707;23;20232;-73
2022/11/21 20:10:39;;;;;;;;;;;14.90;45.40;;;;;;6154532;23;19920;-73
2022/11/21 20:13:06;;;;;;;;;;;15.00;45.90;;;;;;6154639;23;20240;-73
2022/11/21 20:15:36;;;;;;;;;;;15.00;45.90;;;;;;6154026;23;19908;-73
2022/11/21 20:18:04;;;;;;;;;;;15.00;46.20;;;;;;6154266;23;19934;-73
2022/11/21 20:20:30;;;;;;;;;;;15.00;45.30;;;;;;6155192;23;19913;-73
2022/11/21 20:22:57;;;;;;;;;;;15.10;45.50;;;;;;6155818;23;19905;-73
2022/11/21 20:25:23;;;;;;;;;;;15.10;44.40;;;;;;6155203;23;19905;-73
2022/11/21 20:27:50;;;;;;;;;;;15.00;44.80;;;;;;6155060;23;20192;-73
2022/11/21 20:30:22;;;;;;;;;;;15.00;44.80;;;;;;6155547;23;19913;-74
2022/11/21 20:32:49;;;;;;;;;;;15.10;44.30;;;;;;6155059;23;19905;-73
2022/11/21 20:35:15;;;;;;;;;;;15.10;43.60;;;;;;6129548;23;20320;-73
2022/11/21 20:37:42;;;;;;;;;;;15.10;44.50;;;;;;6154955;23;19904;-73
2022/11/21 20:40:09;;;;;;;;;;;15.20;44.50;;;;;;6155023;23;19909;-73
2022/11/21 20:42:36;;;;;;;;;;;15.30;44.20;;;;;;6155407;23;20277;-69
2022/11/21 20:45:02;;;;;;;;;;;15.40;43.70;;;;;;6154507;23;20217;-73
2022/11/21 20:47:29;;;;;;;;;;;15.40;42.90;;;;;;6155388;23;20235;-72
2022/11/21 20:49:56;;;;;;;;;;;15.50;42.20;;;;;;6155076;23;19924;-72
2022/11/21 20:52:22;;;;;;;;;;;15.50;42.10;;;;;;6154332;23;19920;-71
2022/11/21 20:54:49;;;;;;;;;;;15.70;42.00;;;;;;6154552;23;19904;-73
2022/11/21 20:57:15;;;;;;;;;;;15.80;41.90;;;;;;6154751;23;19959;-73
2022/11/21 20:59:42;;;;;;;;;;;15.90;41.90;;;;;;6153856;23;19905;-73
2022/11/21 21:02:10;;;;;;;;;;;16.00;41.50;;;;;;6153549;23;19916;-73
2022/11/21 21:04:37;;;;;;;;;;;16.20;41.60;;;;;;6153130;23;19987;-73
2022/11/21 21:07:04;;;;;;;;;;;16.20;40.80;;;;;;6153597;23;19927;-73
2022/11/21 21:09:30;;;;;;;;;;;16.30;40.30;;;;;;6154542;23;19919;-72
2022/11/21 21:11:57;;;;;;;;;;;16.20;40.00;;;;;;6154291;23;20383;-72
2022/11/21 21:14:23;;;;;;;;;;;16.20;40.90;;;;;;6153460;23;19927;-73
2022/11/21 21:16:50;;;;;;;;;;;16.30;40.10;;;;;;6154422;23;19912;-73
2022/11/21 21:19:17;;;;;;;;;;;16.20;40.00;;;;;;6154851;23;20240;-73
2022/11/21 21:21:43;;;;;;;;;;;16.20;40.10;;;;;;6154587;23;19909;-73
2022/11/21 21:24:10;;;;;;;;;;;16.20;40.60;;;;;;6154295;23;19905;-73
2022/11/21 21:26:37;;;;;;;;;;;16.20;40.30;;;;;;6126244;23;19908;-73
2022/11/21 21:29:04;;;;;;;;;;;16.20;39.80;;;;;;6152827;23;19908;-73
2022/11/21 21:31:31;;;;;;;;;;;16.20;40.70;;;;;;6153258;23;19976;-72
2022/11/21 21:33:57;;;;;;;;;;;16.20;40.50;;;;;;6153630;23;19905;-73
2022/11/21 21:36:24;;;;;;;;;;;16.30;40.10;;;;;;6152939;23;19905;-73
2022/11/21 21:38:52;;;;;;;;;;;16.40;40.20;;;;;;6152434;23;20349;-73
2022/11/21 21:41:19;;;;;;;;;;;16.40;40.40;;;;;;6154207;23;19981;-72
2022/11/21 21:43:48;;;;;;;;;;;16.50;39.50;;;;;;6155034;23;19913;-73
2022/11/21 21:46:15;;;;;;;;;;;16.50;38.80;;;;;;6129138;23;19958;-73
2022/11/21 21:48:41;;;;;;;;;;;16.60;39.30;;;;;;6154779;23;19908;-72
2022/11/21 21:51:08;;;;;;;;;;;16.80;39.50;;;;;;6154842;23;19980;-73
2022/11/21 21:53:36;;;;;;;;;;;16.80;39.20;;;;;;6155008;23;19912;-73
2022/11/21 21:56:03;;;;;;;;;;;16.80;39.50;;;;;;6155584;23;20423;-73
2022/11/21 21:58:31;;;;;;;;;;;16.80;39.40;;;;;;6128797;23;19905;-73
2022/11/21 22:01:04;;;;;;;;;;;16.80;38.90;;;;;;6155154;23;19908;-72
2022/11/21 22:03:30;;;;;;;;;;;16.80;39.20;;;;;;6154855;23;19916;-73
2022/11/21 22:06:01;;;;;;;;;;;16.80;39.20;;;;;;6153401;23;19909;-73
2022/11/21 22:08:28;;;;;;;;;;;16.90;39.00;;;;;;6153599;23;20244;-73
2022/11/21 22:11:04;;;;;;;;;;;17.00;38.10;;;;;;6154636;23;19912;-72
2022/11/21 22:13:31;;;;;;;;;;;17.00;37.90;;;;;;6154294;23;19909;-72
